Overview Statistics Trail Chart Weather Telemetry Raw packets
 

This is the latest recevied weather packets stored in our database for station/object ED1ZAI-14. If no packets are shown the sender has not sent any weather packets the latest 10 day(s).

<< 7 8 9 10 11 12 13 >>
Time Temp. Humidity Pressure Rain* Wind** Luminosity Snow
1788221057 13.33° C 92% 814.3 hPa - - - -
1788219257 13.33° C 91% 814.3 hPa - - - -
1788217456 13.89° C 88% 814.3 hPa - - - -
1788215656 13.89° C 88% 814.4 hPa - - - -
1788213856 13.89° C 88% 814.6 hPa - - - -
1788212056 13.33° C 88% 814.6 hPa - - - -
1788210256 13.89° C 84% 814.5 hPa - - - -
1788208456 14.44° C 76% 814.2 hPa - - - -
1788206664 15° C 73% 814 hPa - - - -
1788204868 14.44° C 68% 813.7 hPa - - - -
1788203056 14.44° C 68% 813.5 hPa - - - -
1788201256 14.44° C 81% 813.3 hPa - - - -
1788199458 14.44° C 70% 813.3 hPa - - - -
1788197659 16.11° C 66% 813.2 hPa - - - -
1788195859 17.78° C 49% 813.4 hPa - - - -
1788194059 21.11° C 35% 813.7 hPa - - - -
1788192258 21.67° C 31% 813.6 hPa - - - -
1788190458 22.22° C 28% 813.8 hPa - - - -
1788188672 23.33° C 29% 813.8 hPa - - - -
1788186858 23.89° C 34% 814 hPa - - - -
1788185058 23.33° C 35% 814.1 hPa - - - -
1788183258 23.89° C 34% 814.1 hPa - - - -
1788181458 23.33° C 38% 814.2 hPa - - - -
1788179658 22.78° C 38% 814.4 hPa - - - -
1788177858 21.67° C 38% 814.5 hPa - - - -

* Rain since midnight (hover to see other rain measurements)
** Current wind speed in m/s (hover to see current wind gust speed)